sensor_id;sensor_type;location;lat;lon;timestamp;pressure;altitude;pressure_sealevel;temperature;humidity
45941;BME280;31858;46.008;8.978;2023-02-28T00:08:19;94796.28;;;0.77;100.00
45941;BME280;31858;46.008;8.978;2023-02-28T00:18:22;94797.72;;;0.91;100.00
45941;BME280;31858;46.008;8.978;2023-02-28T00:28:24;94800.44;;;0.78;100.00
45941;BME280;31858;46.008;8.978;2023-02-28T00:38:27;94798.72;;;0.73;100.00
45941;BME280;31858;46.008;8.978;2023-02-28T00:48:28;94806.78;;;0.77;100.00
45941;BME280;31858;46.008;8.978;2023-02-28T00:58:31;94801.53;;;0.77;100.00
45941;BME280;31858;46.008;8.978;2023-02-28T01:08:33;94802.28;;;0.77;100.00
45941;BME280;31858;46.008;8.978;2023-02-28T01:18:36;94797.81;;;0.78;100.00
45941;BME280;31858;46.008;8.978;2023-02-28T01:28:38;94794.72;;;0.76;100.00
45941;BME280;31858;46.008;8.978;2023-02-28T01:38:41;94790.56;;;0.75;100.00
45941;BME280;31858;46.008;8.978;2023-02-28T01:48:47;94783.16;;;0.77;100.00
45941;BME280;31858;46.008;8.978;2023-02-28T01:58:52;94794.72;;;0.76;100.00
45941;BME280;31858;46.008;8.978;2023-02-28T02:08:54;94789.44;;;0.67;100.00
45941;BME280;31858;46.008;8.978;2023-02-28T02:19:07;94792.38;;;0.65;100.00
45941;BME280;31858;46.008;8.978;2023-02-28T02:29:41;94786.34;;;0.65;100.00
45941;BME280;31858;46.008;8.978;2023-02-28T02:39:53;94790.81;;;0.64;100.00
45941;BME280;31858;46.008;8.978;2023-02-28T02:49:58;94801.97;;;0.70;100.00
45941;BME280;31858;46.008;8.978;2023-02-28T03:00:04;94793.78;;;0.72;100.00
45941;BME280;31858;46.008;8.978;2023-02-28T03:10:31;94788.06;;;0.70;100.00
45941;BME280;31858;46.008;8.978;2023-02-28T03:20:40;94799.16;;;0.67;100.00
45941;BME280;31858;46.008;8.978;2023-02-28T03:30:47;94790.81;;;0.64;100.00
45941;BME280;31858;46.008;8.978;2023-02-28T03:41:00;94788.63;;;0.58;100.00
45941;BME280;31858;46.008;8.978;2023-02-28T03:51:06;94800.97;;;0.57;100.00
45941;BME280;31858;46.008;8.978;2023-02-28T04:01:13;94794.19;;;0.56;100.00
45941;BME280;31858;46.008;8.978;2023-02-28T04:11:20;94807.16;;;0.61;100.00
45941;BME280;31858;46.008;8.978;2023-02-28T04:21:24;94804.97;;;0.55;100.00
45941;BME280;31858;46.008;8.978;2023-02-28T04:31:26;94816.22;;;0.55;100.00
45941;BME280;31858;46.008;8.978;2023-02-28T04:41:29;94822.72;;;0.58;100.00
45941;BME280;31858;46.008;8.978;2023-02-28T04:51:31;94826.88;;;0.59;100.00
45941;BME280;31858;46.008;8.978;2023-02-28T05:01:34;94823.50;;;0.58;100.00
45941;BME280;31858;46.008;8.978;2023-02-28T05:11:36;94833.97;;;0.58;100.00
45941;BME280;31858;46.008;8.978;2023-02-28T05:21:41;94839.41;;;0.62;100.00
45941;BME280;31858;46.008;8.978;2023-02-28T05:31:49;94840.78;;;0.59;100.00
45941;BME280;31858;46.008;8.978;2023-02-28T05:41:52;94837.38;;;0.59;100.00
45941;BME280;31858;46.008;8.978;2023-02-28T05:51:53;94832.25;;;0.54;100.00
45941;BME280;31858;46.008;8.978;2023-02-28T06:01:56;94828.88;;;0.53;100.00
45941;BME280;31858;46.008;8.978;2023-02-28T06:11:58;94833.75;;;0.46;100.00
45941;BME280;31858;46.008;8.978;2023-02-28T06:22:01;94839.59;;;0.43;100.00
45941;BME280;31858;46.008;8.978;2023-02-28T06:32:03;94862.25;;;0.39;100.00
45941;BME280;31858;46.008;8.978;2023-02-28T06:42:06;94877.25;;;0.25;100.00
45941;BME280;31858;46.008;8.978;2023-02-28T06:52:07;94887.97;;;0.15;100.00
45941;BME280;31858;46.008;8.978;2023-02-28T07:02:11;94891.41;;;0.02;100.00
45941;BME280;31858;46.008;8.978;2023-02-28T07:12:13;94904.75;;;-0.09;100.00
45941;BME280;31858;46.008;8.978;2023-02-28T07:22:15;94911.94;;;-0.14;100.00
45941;BME280;31858;46.008;8.978;2023-02-28T07:32:17;94930.94;;;-0.09;100.00
45941;BME280;31858;46.008;8.978;2023-02-28T07:42:20;94922.41;;;-0.14;100.00
45941;BME280;31858;46.008;8.978;2023-02-28T07:52:22;94923.84;;;-0.08;100.00
45941;BME280;31858;46.008;8.978;2023-02-28T08:02:25;94928.22;;;-0.04;100.00
45941;BME280;31858;46.008;8.978;2023-02-28T08:12:27;94935.34;;;0.05;100.00
45941;BME280;31858;46.008;8.978;2023-02-28T08:22:30;94934.53;;;0.18;100.00
45941;BME280;31858;46.008;8.978;2023-02-28T08:32:32;94933.25;;;0.29;100.00
45941;BME280;31858;46.008;8.978;2023-02-28T08:42:35;94923.50;;;0.43;100.00
45941;BME280;31858;46.008;8.978;2023-02-28T08:52:37;94920.22;;;0.60;100.00
45941;BME280;31858;46.008;8.978;2023-02-28T09:02:40;94921.06;;;0.69;100.00
45941;BME280;31858;46.008;8.978;2023-02-28T09:12:43;94919.03;;;0.66;100.00
45941;BME280;31858;46.008;8.978;2023-02-28T09:22:48;94945.13;;;0.71;100.00
45941;BME280;31858;46.008;8.978;2023-02-28T09:32:49;94949.47;;;0.76;100.00
45941;BME280;31858;46.008;8.978;2023-02-28T09:42:55;94952.63;;;0.86;100.00
45941;BME280;31858;46.008;8.978;2023-02-28T09:52:59;94950.06;;;0.95;100.00
45941;BME280;31858;46.008;8.978;2023-02-28T10:03:20;94952.66;;;1.17;100.00
45941;BME280;31858;46.008;8.978;2023-02-28T10:13:32;94954.56;;;1.34;100.00
45941;BME280;31858;46.008;8.978;2023-02-28T10:23:37;94947.06;;;1.50;100.00
45941;BME280;31858;46.008;8.978;2023-02-28T10:33:39;94951.78;;;1.70;100.00
45941;BME280;31858;46.008;8.978;2023-02-28T10:43:43;94955.50;;;1.78;100.00
45941;BME280;31858;46.008;8.978;2023-02-28T10:53:48;94951.66;;;1.84;100.00
45941;BME280;31858;46.008;8.978;2023-02-28T11:03:52;94950.63;;;1.93;100.00
45941;BME280;31858;46.008;8.978;2023-02-28T11:13:56;94937.31;;;1.99;100.00
45941;BME280;31858;46.008;8.978;2023-02-28T11:24:02;94925.91;;;2.12;100.00
45941;BME280;31858;46.008;8.978;2023-02-28T11:34:24;94911.84;;;2.08;100.00
45941;BME280;31858;46.008;8.978;2023-02-28T11:44:41;94895.75;;;2.26;100.00
45941;BME280;31858;46.008;8.978;2023-02-28T11:54:57;94880.13;;;2.47;100.00
45941;BME280;31858;46.008;8.978;2023-02-28T12:05:14;94869.22;;;2.75;100.00
45941;BME280;31858;46.008;8.978;2023-02-28T12:15:33;94844.38;;;3.10;100.00
45941;BME280;31858;46.008;8.978;2023-02-28T12:25:47;94834.31;;;3.42;100.00
45941;BME280;31858;46.008;8.978;2023-02-28T12:35:54;94822.25;;;3.62;100.00
45941;BME280;31858;46.008;8.978;2023-02-28T12:46:00;94806.22;;;3.75;100.00
45941;BME280;31858;46.008;8.978;2023-02-28T12:56:12;94801.56;;;4.14;100.00
45941;BME280;31858;46.008;8.978;2023-02-28T13:06:37;94790.06;;;4.64;100.00
45941;BME280;31858;46.008;8.978;2023-02-28T13:16:59;94768.09;;;4.84;100.00
45941;BME280;31858;46.008;8.978;2023-02-28T13:27:25;94759.09;;;4.85;100.00
45941;BME280;31858;46.008;8.978;2023-02-28T13:37:35;94765.19;;;4.52;100.00
45941;BME280;31858;46.008;8.978;2023-02-28T13:47:40;94761.91;;;4.22;100.00
45941;BME280;31858;46.008;8.978;2023-02-28T13:57:54;94759.75;;;4.04;100.00
45941;BME280;31858;46.008;8.978;2023-02-28T14:08:05;94751.28;;;3.98;100.00
45941;BME280;31858;46.008;8.978;2023-02-28T14:18:22;94743.50;;;4.02;100.00
45941;BME280;31858;46.008;8.978;2023-02-28T14:28:38;94735.34;;;4.28;100.00
45941;BME280;31858;46.008;8.978;2023-02-28T14:38:47;94730.91;;;4.77;100.00
45941;BME280;31858;46.008;8.978;2023-02-28T14:48:52;94723.19;;;4.47;100.00
45941;BME280;31858;46.008;8.978;2023-02-28T14:58:55;94715.53;;;4.79;100.00
45941;BME280;31858;46.008;8.978;2023-02-28T15:09:09;94717.94;;;5.08;100.00
45941;BME280;31858;46.008;8.978;2023-02-28T15:19:14;94711.84;;;5.32;100.00
45941;BME280;31858;46.008;8.978;2023-02-28T15:29:21;94703.31;;;5.11;100.00
45941;BME280;31858;46.008;8.978;2023-02-28T15:49:28;94690.09;;;5.11;100.00
45941;BME280;31858;46.008;8.978;2023-02-28T15:59:31;94684.72;;;4.95;100.00
45941;BME280;31858;46.008;8.978;2023-02-28T16:09:34;94686.81;;;4.77;100.00
45941;BME280;31858;46.008;8.978;2023-02-28T16:19:37;94687.34;;;4.71;100.00
45941;BME280;31858;46.008;8.978;2023-02-28T16:29:40;94690.66;;;4.55;100.00
45941;BME280;31858;46.008;8.978;2023-02-28T16:39:43;94688.44;;;4.45;100.00
45941;BME280;31858;46.008;8.978;2023-02-28T16:49:46;94683.94;;;4.58;100.00
45941;BME280;31858;46.008;8.978;2023-02-28T16:59:48;94686.91;;;4.56;100.00
45941;BME280;31858;46.008;8.978;2023-02-28T17:09:52;94686.22;;;4.35;100.00
45941;BME280;31858;46.008;8.978;2023-02-28T17:19:53;94684.50;;;4.51;100.00
45941;BME280;31858;46.008;8.978;2023-02-28T17:29:56;94687.44;;;4.38;100.00
45941;BME280;31858;46.008;8.978;2023-02-28T17:39:58;94700.59;;;3.92;100.00
45941;BME280;31858;46.008;8.978;2023-02-28T17:50:01;94693.72;;;3.67;100.00
45941;BME280;31858;46.008;8.978;2023-02-28T18:00:03;94700.53;;;3.26;100.00
45941;BME280;31858;46.008;8.978;2023-02-28T18:10:13;94699.00;;;3.25;100.00
45941;BME280;31858;46.008;8.978;2023-02-28T18:20:19;94700.78;;;3.13;100.00
45941;BME280;31858;46.008;8.978;2023-02-28T18:30:23;94704.81;;;3.10;100.00
45941;BME280;31858;46.008;8.978;2023-02-28T18:40:25;94697.03;;;2.93;100.00
45941;BME280;31858;46.008;8.978;2023-02-28T18:50:28;94701.09;;;2.82;100.00
45941;BME280;31858;46.008;8.978;2023-02-28T19:00:30;94699.47;;;2.69;100.00
45941;BME280;31858;46.008;8.978;2023-02-28T19:10:33;94698.88;;;2.63;100.00
45941;BME280;31858;46.008;8.978;2023-02-28T19:20:35;94690.53;;;2.61;100.00
45941;BME280;31858;46.008;8.978;2023-02-28T19:30:38;94691.22;;;2.49;100.00
45941;BME280;31858;46.008;8.978;2023-02-28T19:40:40;94694.97;;;2.40;100.00
45941;BME280;31858;46.008;8.978;2023-02-28T19:50:43;94693.41;;;2.47;100.00
45941;BME280;31858;46.008;8.978;2023-02-28T20:00:44;94687.66;;;2.54;100.00
45941;BME280;31858;46.008;8.978;2023-02-28T20:10:47;94691.13;;;2.37;100.00
45941;BME280;31858;46.008;8.978;2023-02-28T20:20:49;94701.66;;;2.28;100.00
45941;BME280;31858;46.008;8.978;2023-02-28T20:30:51;94705.09;;;2.20;100.00
45941;BME280;31858;46.008;8.978;2023-02-28T20:40:53;94710.06;;;2.05;100.00
45941;BME280;31858;46.008;8.978;2023-02-28T20:50:57;94714.41;;;2.01;100.00
45941;BME280;31858;46.008;8.978;2023-02-28T21:01:00;94718.88;;;2.00;100.00
45941;BME280;31858;46.008;8.978;2023-02-28T21:11:07;94730.34;;;1.95;100.00
45941;BME280;31858;46.008;8.978;2023-02-28T21:21:11;94725.25;;;1.82;100.00
45941;BME280;31858;46.008;8.978;2023-02-28T21:31:16;94730.19;;;1.83;100.00
45941;BME280;31858;46.008;8.978;2023-02-28T21:41:20;94730.19;;;1.75;100.00
45941;BME280;31858;46.008;8.978;2023-02-28T21:51:26;94742.41;;;1.71;100.00
45941;BME280;31858;46.008;8.978;2023-02-28T22:01:29;94736.06;;;1.63;100.00
45941;BME280;31858;46.008;8.978;2023-02-28T22:11:33;94743.16;;;1.54;100.00
45941;BME280;31858;46.008;8.978;2023-02-28T22:21:36;94738.38;;;1.82;100.00
45941;BME280;31858;46.008;8.978;2023-02-28T22:31:40;94741.00;;;1.73;100.00
45941;BME280;31858;46.008;8.978;2023-02-28T22:41:41;94726.78;;;1.74;100.00
45941;BME280;31858;46.008;8.978;2023-02-28T22:51:45;94724.31;;;1.69;100.00
45941;BME280;31858;46.008;8.978;2023-02-28T23:01:47;94723.56;;;1.51;100.00
45941;BME280;31858;46.008;8.978;2023-02-28T23:11:50;94715.22;;;1.58;100.00
45941;BME280;31858;46.008;8.978;2023-02-28T23:21:52;94714.44;;;1.49;100.00
45941;BME280;31858;46.008;8.978;2023-02-28T23:31:55;94715.22;;;1.58;100.00
45941;BME280;31858;46.008;8.978;2023-02-28T23:41:57;94713.34;;;1.58;100.00
45941;BME280;31858;46.008;8.978;2023-02-28T23:52:00;94721.84;;;1.55;100.00
